Airfield :
LOGIN :

Register | Disclaimer

   EN    FR    IT 

 










Legend :    VFR   Marginal VFR   IFR   Intensive IFR   Very Intensive IFR
Visi :
Ceiling :
>= 8 km
>= 3000ft
5 to 8 km
1000 to 3000 ft
1500m to 5 km
500 to 1000 ft
800 to 1500m
200 to 500 ft
< 800m
< 200 ft
Symbols :   Thunderstorms  Fog  Heavy snow  Heavy precipitations  Wind > 20 kt
SIGMETs :     Misc.  Thunderstorms  Icing  Turbulence  Mountain Waves  Volcanic Ashes







- Airport Elevation : 348 ft
- IATA code : LDV
- Download approach charts


LFRJ - Landivisiau

CURRENT METAR :
  • 171430Z AUTO 29010KT 270V340 9999 SCT028 BKN035 BKN046 18/11 Q1024

EXPIRED METARs :
  • 171400Z AUTO 32009KT 280V350 9999 BKN034 BKN040 OVC049 18/10 Q1024
  • 171330Z AUTO 32009KT 9999 BKN034 OVC047 18/10 Q1025
  • 171300Z AUTO 33010KT 9999 FEW035 OVC050 19/10 Q1024
  • 171230Z AUTO 32009KT 300V360 9999 SCT034 BKN042 BKN052 19/11 Q1024
  • 171200Z AUTO 30009KT 260V340 9999 SCT034 SCT043 BKN050 19/09 Q1024

Expired Forecast.
No reported NOTAMs for that airfield.



MET'MAP, your aeronautical weather chart ! - Copyright ORBIFLY December 2007 - Disclaimer

ORBIFLY MET'MAP TEAM :

Programming & Development : Alexandra Zaïnal
Concept & Development : Baudouin d'Aumeries
Co-Development & Prog : Marc-Olivier Méhu
Technical & hardware support : Manuel Goepfert

Contact : metmap@orbifly.com




SOURCES & CREDITS :

   NOAA